Time;durP1;ratioP1;P1;durP2;ratioP2;P2;SDS_P1;SDS_P2;PMS_P1;PMS_P2;Temp;Humidity;BMP_temperature;BMP_pressure;BME280_temperature;BME280_humidity;BME280_pressure;Samples;Min_cycle;Max_cycle;Signal;HPM_P1;HPM_P2
2021/06/16 00:02:15;;;;;;;28.77;26.48;;;;;;;;;;4390703;32;20127;-86
2021/06/16 00:04:44;;;;;;;28.70;25.95;;;;;;;;;;4397846;32;20066;-85
2021/06/16 00:07:15;;;;;;;28.50;26.00;;;;;;;;;;4398490;32;21074;-85
2021/06/16 00:09:47;;;;;;;29.00;26.67;;;;;;;;;;4396394;32;20113;-86
2021/06/16 00:12:18;;;;;;;33.97;30.90;;;;;;;;;;4395937;32;20061;-86
2021/06/16 00:14:49;;;;;;;32.70;29.83;;;;;;;;;;4379014;32;20166;-86
2021/06/16 00:17:21;;;;;;;23.17;21.25;;;;;;;;;;4390464;32;20047;-85
2021/06/16 00:19:52;;;;;;;20.08;18.00;;;;;;;;;;4384018;32;20125;-85
2021/06/16 00:22:23;;;;;;;18.75;17.23;;;;;;;;;;4390757;32;20093;-85
2021/06/16 00:24:54;;;;;;;18.65;17.17;;;;;;;;;;4391694;32;20078;-85
2021/06/16 00:27:25;;;;;;;19.00;17.40;;;;;;;;;;4392934;32;20161;-85
2021/06/16 00:29:56;;;;;;;19.50;17.75;;;;;;;;;;4393879;32;20055;-85
2021/06/16 00:32:28;;;;;;;31.17;28.70;;;;;;;;;;4392645;32;20060;-85
2021/06/16 00:35:02;;;;;;;27.98;25.30;;;;;;;;;;4394158;32;20125;-85
2021/06/16 00:37:34;;;;;;;27.15;24.77;;;;;;;;;;4394493;32;20142;-85
2021/06/16 00:40:07;;;;;;;26.87;24.77;;;;;;;;;;4393921;32;20054;-85
2021/06/16 00:42:38;;;;;;;26.90;24.55;;;;;;;;;;4390491;32;20175;-85
2021/06/16 00:45:11;;;;;;;26.10;23.83;;;;;;;;;;4397899;32;20460;-85
2021/06/16 00:47:41;;;;;;;26.37;24.10;;;;;;;;;;4388316;32;20509;-85
2021/06/16 00:50:13;;;;;;;25.95;23.80;;;;;;;;;;4380979;32;20141;-86
2021/06/16 00:52:48;;;;;;;26.23;23.90;;;;;;;;;;4383410;32;20523;-85
2021/06/16 00:55:19;;;;;;;23.92;21.75;;;;;;;;;;4381875;32;20161;-85
2021/06/16 00:57:50;;;;;;;17.90;16.37;;;;;;;;;;4388266;32;20100;-85
2021/06/16 01:00:24;;;;;;;17.80;16.10;;;;;;;;;;4387359;32;20130;-85
2021/06/16 01:03:08;;;;;;;17.92;16.12;;;;;;;;;;4389556;32;20070;-85
2021/06/16 01:05:42;;;;;;;17.83;16.40;;;;;;;;;;4395163;32;20131;-85
2021/06/16 01:08:16;;;;;;;17.00;15.55;;;;;;;;;;4390893;32;20102;-84
2021/06/16 01:10:48;;;;;;;26.90;24.60;;;;;;;;;;4398644;32;20922;-84
2021/06/16 01:13:46;;;;;;;26.90;24.67;;;;;;;;;;4392406;32;20121;-85
2021/06/16 01:16:20;;;;;;;27.25;24.77;;;;;;;;;;4395201;32;20098;-84
2021/06/16 01:18:53;;;;;;;26.98;24.60;;;;;;;;;;4397620;32;20069;-85
2021/06/16 01:21:27;;;;;;;26.70;24.60;;;;;;;;;;4394101;32;20085;-85
2021/06/16 01:24:02;;;;;;;22.83;20.67;;;;;;;;;;4388638;32;20687;-85
2021/06/16 01:26:34;;;;;;;22.95;21.08;;;;;;;;;;4395037;32;20136;-85
2021/06/16 01:29:19;;;;;;;22.13;20.50;;;;;;;;;;4377060;32;20110;-84
2021/06/16 01:31:49;;;;;;;23.30;21.05;;;;;;;;;;4385018;32;20518;-86
2021/06/16 01:34:21;;;;;;;22.95;20.73;;;;;;;;;;4383184;32;20043;-84
2021/06/16 01:36:54;;;;;;;17.75;16.42;;;;;;;;;;4384396;32;20140;-84
2021/06/16 01:39:29;;;;;;;19.23;17.23;;;;;;;;;;4370380;32;20188;-85
2021/06/16 01:42:01;;;;;;;17.83;16.35;;;;;;;;;;4380376;32;20043;-85
2021/06/16 01:44:32;;;;;;;17.60;16.20;;;;;;;;;;4384168;32;20055;-84
2021/06/16 01:47:04;;;;;;;17.40;16.05;;;;;;;;;;4381690;32;20121;-85
2021/06/16 01:49:35;;;;;;;25.77;23.50;;;;;;;;;;4385236;32;20133;-85
2021/06/16 01:52:07;;;;;;;24.70;22.70;;;;;;;;;;4379662;32;20110;-85
2021/06/16 01:54:38;;;;;;;24.85;22.70;;;;;;;;;;4375832;32;20111;-85
2021/06/16 01:57:10;;;;;;;25.67;23.55;;;;;;;;;;4381258;32;20046;-85
2021/06/16 01:59:42;;;;;;;25.25;22.98;;;;;;;;;;4375403;32;20114;-85
2021/06/16 02:02:14;;;;;;;23.12;20.92;;;;;;;;;;4370693;32;20185;-85
2021/06/16 02:04:45;;;;;;;22.92;20.88;;;;;;;;;;4373396;32;20508;-85
2021/06/16 02:07:19;;;;;;;22.13;20.20;;;;;;;;;;4375359;32;20117;-85
2021/06/16 02:09:52;;;;;;;22.42;20.50;;;;;;;;;;4361384;32;20098;-84
2021/06/16 02:12:22;;;;;;;22.25;20.35;;;;;;;;;;4375544;32;20164;-85
2021/06/16 02:14:57;;;;;;;18.08;16.50;;;;;;;;;;4368433;32;20121;-85
2021/06/16 02:17:30;;;;;;;18.20;16.58;;;;;;;;;;4377854;32;20043;-84
2021/06/16 02:20:01;;;;;;;17.80;16.25;;;;;;;;;;4378876;32;20113;-85
2021/06/16 02:22:33;;;;;;;18.00;16.40;;;;;;;;;;4374243;32;20093;-85
2021/06/16 02:25:04;;;;;;;15.75;14.35;;;;;;;;;;4366423;32;20117;-85
2021/06/16 02:27:35;;;;;;;18.05;16.70;;;;;;;;;;4371750;32;20102;-84
2021/06/16 02:30:07;;;;;;;21.15;18.65;;;;;;;;;;4406878;32;20125;-84
2021/06/16 02:32:39;;;;;;;20.90;19.15;;;;;;;;;;4405043;32;20538;-84
2021/06/16 02:35:10;;;;;;;25.02;22.62;;;;;;;;;;4386403;32;21466;-84
2021/06/16 02:37:43;;;;;;;27.25;24.42;;;;;;;;;;4385767;32;20160;-85
2021/06/16 02:40:15;;;;;;;26.95;24.85;;;;;;;;;;4401858;32;20110;-85
2021/06/16 02:42:49;;;;;;;28.52;26.15;;;;;;;;;;4404378;32;20440;-85
2021/06/16 02:45:20;;;;;;;22.85;20.90;;;;;;;;;;4386918;32;20101;-85
2021/06/16 02:47:52;;;;;;;23.70;21.55;;;;;;;;;;4375484;32;20066;-84
2021/06/16 02:50:26;;;;;;;22.33;20.33;;;;;;;;;;4398592;32;20072;-84
2021/06/16 02:52:58;;;;;;;23.40;21.50;;;;;;;;;;4388816;32;20182;-86
2021/06/16 02:55:28;;;;;;;18.10;16.40;;;;;;;;;;4383148;32;20063;-85
2021/06/16 02:58:00;;;;;;;18.02;16.30;;;;;;;;;;4389926;32;20111;-84
2021/06/16 03:00:31;;;;;;;17.73;16.20;;;;;;;;;;4397853;32;20181;-84
2021/06/16 03:03:04;;;;;;;17.98;16.50;;;;;;;;;;4401803;32;20081;-84
2021/06/16 03:05:36;;;;;;;18.08;16.40;;;;;;;;;;4385640;32;20192;-85
2021/06/16 03:08:09;;;;;;;28.12;25.62;;;;;;;;;;4377486;32;20613;-85
2021/06/16 03:13:36;;;;;;;28.92;26.40;;;;;;;;;;4165507;26;20602;-84
2021/06/16 03:16:07;;;;;;;29.45;26.95;;;;;;;;;;4383123;32;20082;-88
2021/06/16 03:18:38;;;;;;;24.37;22.33;;;;;;;;;;4381407;32;20118;-81
2021/06/16 03:21:11;;;;;;;28.75;26.30;;;;;;;;;;4431668;27;20093;31
2021/06/16 03:23:43;;;;;;;27.65;25.60;;;;;;;;;;4399791;27;20090;-81
2021/06/16 03:26:15;;;;;;;27.77;25.65;;;;;;;;;;4372904;32;20122;-83
2021/06/16 03:28:49;;;;;;;22.75;20.73;;;;;;;;;;4383247;32;20085;-86
2021/06/16 03:31:21;;;;;;;23.98;21.42;;;;;;;;;;4391600;32;20046;-86
2021/06/16 03:33:52;;;;;;;22.52;20.62;;;;;;;;;;4350029;32;20179;-83
2021/06/16 03:36:23;;;;;;;24.23;22.00;;;;;;;;;;4376562;32;20059;-82
2021/06/16 03:38:54;;;;;;;26.00;23.27;;;;;;;;;;4393018;32;20363;-81
2021/06/16 03:41:25;;;;;;;24.08;21.67;;;;;;;;;;4388591;32;20094;-83
2021/06/16 03:43:57;;;;;;;21.87;19.85;;;;;;;;;;4391404;32;20392;-83
2021/06/16 03:46:30;;;;;;;22.50;20.50;;;;;;;;;;4367298;32;20179;-86
2021/06/16 03:49:01;;;;;;;26.55;24.15;;;;;;;;;;4384262;32;20136;-85
2021/06/16 03:51:34;;;;;;;27.67;25.15;;;;;;;;;;4390956;32;20069;-84
2021/06/16 03:54:11;;;;;;;27.60;24.83;;;;;;;;;;4370809;32;20127;-83
2021/06/16 03:56:43;;;;;;;21.80;19.77;;;;;;;;;;4380672;32;20118;-83
2021/06/16 03:59:15;;;;;;;21.77;19.60;;;;;;;;;;4372144;32;20109;-82
2021/06/16 04:01:47;;;;;;;19.48;17.50;;;;;;;;;;4378691;32;20114;-81
2021/06/16 04:04:19;;;;;;;18.92;16.77;;;;;;;;;;4373632;32;20527;-88
2021/06/16 04:06:49;;;;;;;18.67;16.87;;;;;;;;;;4364934;32;20109;-86
2021/06/16 04:09:21;;;;;;;19.92;18.27;;;;;;;;;;4362976;32;20101;-84
2021/06/16 04:11:52;;;;;;;19.37;17.67;;;;;;;;;;4376125;32;20512;-80
2021/06/16 04:14:23;;;;;;;19.35;17.48;;;;;;;;;;4373388;32;20164;-82
2021/06/16 04:16:56;;;;;;;18.50;17.00;;;;;;;;;;4373908;32;20292;-82
2021/06/16 04:19:27;;;;;;;19.00;17.23;;;;;;;;;;4369877;32;20184;-88
2021/06/16 04:21:58;;;;;;;19.55;17.52;;;;;;;;;;4375045;32;20408;-83
2021/06/16 04:24:29;;;;;;;22.50;17.25;;;;;;;;;;4378768;32;20100;-83
2021/06/16 04:27:00;;;;;;;20.48;18.45;;;;;;;;;;4377447;32;21705;-84
2021/06/16 04:29:31;;;;;;;18.17;16.60;;;;;;;;;;4366879;32;20130;-83
2021/06/16 04:32:02;;;;;;;19.90;17.90;;;;;;;;;;4381095;32;20157;-82
2021/06/16 04:34:34;;;;;;;19.10;17.20;;;;;;;;;;4378768;32;20124;-82
2021/06/16 04:37:05;;;;;;;18.55;16.83;;;;;;;;;;4378994;32;20188;-82
2021/06/16 04:39:37;;;;;;;20.15;18.05;;;;;;;;;;4377152;32;20144;-82
2021/06/16 04:42:08;;;;;;;18.42;16.30;;;;;;;;;;4369259;32;20517;-81
2021/06/16 04:44:39;;;;;;;18.35;16.62;;;;;;;;;;4377202;32;20057;-86
2021/06/16 04:47:10;;;;;;;17.65;16.20;;;;;;;;;;4380770;32;20050;-82
2021/06/16 04:49:44;;;;;;;17.70;16.30;;;;;;;;;;4364402;32;20122;-85
2021/06/16 04:52:14;;;;;;;18.92;16.55;;;;;;;;;;4364294;32;20112;-85
2021/06/16 04:54:45;;;;;;;19.00;17.52;;;;;;;;;;4363967;32;20086;-83
2021/06/16 04:57:16;;;;;;;18.95;17.50;;;;;;;;;;4372945;32;20081;-84
2021/06/16 04:59:47;;;;;;;18.35;16.95;;;;;;;;;;4378388;32;20059;-82
2021/06/16 05:02:18;;;;;;;18.30;16.90;;;;;;;;;;4378461;32;20117;-81
2021/06/16 05:04:49;;;;;;;18.30;16.85;;;;;;;;;;4355191;32;20183;-85
2021/06/16 05:07:20;;;;;;;17.35;16.10;;;;;;;;;;4378147;32;20097;-89
2021/06/16 05:09:51;;;;;;;18.58;16.70;;;;;;;;;;4387070;32;20238;-83
2021/06/16 05:12:22;;;;;;;18.98;17.30;;;;;;;;;;4374167;32;20176;-87
2021/06/16 05:14:53;;;;;;;17.98;16.55;;;;;;;;;;4385471;32;20141;-80
2021/06/16 05:17:24;;;;;;;20.50;17.23;;;;;;;;;;4380768;32;20116;-84
2021/06/16 05:19:56;;;;;;;18.00;16.60;;;;;;;;;;4378639;32;20444;-85
2021/06/16 05:22:28;;;;;;;19.08;17.30;;;;;;;;;;4373567;32;20677;-83
2021/06/16 05:25:01;;;;;;;19.15;17.48;;;;;;;;;;4385352;32;20586;-86
2021/06/16 05:27:32;;;;;;;21.05;19.20;;;;;;;;;;4387311;32;20169;-85
2021/06/16 05:30:06;;;;;;;19.35;17.70;;;;;;;;;;4381217;32;20128;-82
2021/06/16 05:32:38;;;;;;;17.95;16.35;;;;;;;;;;4380251;32;20149;-85
2021/06/16 05:35:10;;;;;;;18.23;16.58;;;;;;;;;;4381633;32;20070;-78
2021/06/16 05:37:43;;;;;;;19.10;17.15;;;;;;;;;;4384194;32;20134;-88
2021/06/16 05:40:16;;;;;;;19.70;17.73;;;;;;;;;;4379642;32;20616;-83
2021/06/16 05:42:47;;;;;;;18.30;16.70;;;;;;;;;;4375078;32;20538;-88
2021/06/16 05:45:18;;;;;;;18.20;16.70;;;;;;;;;;4375489;32;20082;-81
2021/06/16 05:47:48;;;;;;;19.02;17.40;;;;;;;;;;4374478;32;20121;-85
2021/06/16 05:50:20;;;;;;;19.02;17.42;;;;;;;;;;4371737;32;20126;-84
2021/06/16 05:52:50;;;;;;;19.98;18.30;;;;;;;;;;4374719;32;20416;-85
2021/06/16 05:55:21;;;;;;;20.30;18.62;;;;;;;;;;4373286;32;20433;-83
2021/06/16 05:57:52;;;;;;;26.98;24.95;;;;;;;;;;4373707;32;20125;-86
2021/06/16 06:00:25;;;;;;;24.48;22.42;;;;;;;;;;4376522;32;20620;-85
2021/06/16 06:02:57;;;;;;;26.85;23.35;;;;;;;;;;4373688;32;20086;-82
2021/06/16 06:05:28;;;;;;;26.17;23.65;;;;;;;;;;4356565;32;20102;-88
2021/06/16 06:07:58;;;;;;;26.85;24.45;;;;;;;;;;4374289;32;20066;-84
2021/06/16 06:10:29;;;;;;;26.42;23.90;;;;;;;;;;4366939;32;20152;-83
2021/06/16 06:13:00;;;;;;;20.83;18.98;;;;;;;;;;4372466;32;20094;-82
2021/06/16 06:15:31;;;;;;;21.12;19.42;;;;;;;;;;4381595;32;20077;-84
2021/06/16 06:18:02;;;;;;;19.80;18.00;;;;;;;;;;4394547;32;20062;-81
2021/06/16 06:20:33;;;;;;;33.63;30.48;;;;;;;;;;4384987;32;20118;-90
2021/06/16 06:23:05;;;;;;;23.25;21.25;;;;;;;;;;4385546;32;20051;-86
2021/06/16 06:25:36;;;;;;;34.33;31.25;;;;;;;;;;4374426;32;20109;-80
2021/06/16 06:28:08;;;;;;;37.05;33.65;;;;;;;;;;4371649;32;20504;-82
2021/06/16 06:30:38;;;;;;;40.60;37.10;;;;;;;;;;4381815;32;20473;-87
2021/06/16 06:33:10;;;;;;;46.25;41.92;;;;;;;;;;4383138;32;20058;-88
2021/06/16 06:35:40;;;;;;;48.30;43.72;;;;;;;;;;4396482;32;20121;-81
2021/06/16 06:38:13;;;;;;;48.45;44.03;;;;;;;;;;4373050;32;20156;-81
2021/06/16 06:40:44;;;;;;;48.58;44.00;;;;;;;;;;4386166;32;20171;-85
2021/06/16 06:43:16;;;;;;;20.10;18.12;;;;;;;;;;4389100;32;20102;-84
2021/06/16 06:45:47;;;;;;;3.03;2.15;;;;;;;;;;4389582;32;20126;-86
2021/06/16 06:48:17;;;;;;;5.28;2.22;;;;;;;;;;4377368;32;21222;-83
2021/06/16 06:50:48;;;;;;;5.25;2.20;;;;;;;;;;4369043;32;20252;-84
2021/06/16 06:53:21;;;;;;;7.80;2.28;;;;;;;;;;4393637;32;20085;-82
2021/06/16 06:55:52;;;;;;;3.87;2.13;;;;;;;;;;4396993;32;20133;-84
2021/06/16 06:58:24;;;;;;;4.50;2.03;;;;;;;;;;4384662;32;20155;-80
2021/06/16 07:00:54;;;;;;;7.45;2.70;;;;;;;;;;4379860;32;20120;-83
2021/06/16 07:03:26;;;;;;;4.37;1.67;;;;;;;;;;4383104;32;20096;-88
2021/06/16 07:05:57;;;;;;;6.65;2.03;;;;;;;;;;4370877;32;20881;-93
2021/06/16 07:08:28;;;;;;;4.40;1.80;;;;;;;;;;4383451;32;20148;-82
2021/06/16 07:10:58;;;;;;;4.90;2.08;;;;;;;;;;4371664;32;20125;-83
2021/06/16 07:13:29;;;;;;;5.25;2.50;;;;;;;;;;4387679;32;20113;-84
2021/06/16 07:16:10;;;;;;;3.62;1.73;;;;;;;;;;4381356;32;20078;-91
2021/06/16 07:18:42;;;;;;;3.40;1.80;;;;;;;;;;4371391;32;20122;-84
2021/06/16 07:21:12;;;;;;;4.43;1.85;;;;;;;;;;4393700;32;20040;-84
2021/06/16 07:23:43;;;;;;;6.68;1.87;;;;;;;;;;4393028;32;20701;-91
2021/06/16 07:26:15;;;;;;;3.72;1.60;;;;;;;;;;4391784;32;20346;-84
2021/06/16 07:28:46;;;;;;;4.57;1.85;;;;;;;;;;4393741;32;20114;-84
2021/06/16 07:31:16;;;;;;;3.30;1.98;;;;;;;;;;4396911;32;20602;-88
2021/06/16 07:33:48;;;;;;;4.55;1.85;;;;;;;;;;4393224;32;20054;-87
2021/06/16 07:36:18;;;;;;;5.95;2.10;;;;;;;;;;4393601;32;20059;-87
2021/06/16 07:38:50;;;;;;;3.37;2.10;;;;;;;;;;4381031;32;20077;-84
2021/06/16 07:41:20;;;;;;;15.40;3.00;;;;;;;;;;4393740;32;20109;-84
2021/06/16 07:43:51;;;;;;;4.70;2.47;;;;;;;;;;4386760;32;20153;-81
2021/06/16 07:46:23;;;;;;;56.30;5.20;;;;;;;;;;4389422;32;20094;-86
2021/06/16 07:48:54;;;;;;;120.65;8.85;;;;;;;;;;4389709;32;20058;-79
2021/06/16 07:51:24;;;;;;;47.62;4.00;;;;;;;;;;4372833;32;20098;-84
2021/06/16 07:53:55;;;;;;;170.23;9.45;;;;;;;;;;4378052;32;20064;-85
2021/06/16 07:56:26;;;;;;;111.72;7.82;;;;;;;;;;4382290;32;20144;-87
2021/06/16 07:58:57;;;;;;;39.97;3.25;;;;;;;;;;4376456;32;20109;-83
2021/06/16 08:01:27;;;;;;;14.85;2.45;;;;;;;;;;4395003;32;20137;-81
2021/06/16 08:03:59;;;;;;;6.15;2.12;;;;;;;;;;4392039;32;20155;-80
2021/06/16 08:06:29;;;;;;;4.72;2.10;;;;;;;;;;4390219;32;20106;-88
2021/06/16 08:09:00;;;;;;;8.70;2.70;;;;;;;;;;4377408;32;20073;-82
2021/06/16 08:11:31;;;;;;;6.50;2.20;;;;;;;;;;4376889;32;20069;-83
2021/06/16 08:14:02;;;;;;;19.52;3.22;;;;;;;;;;4375047;32;20399;-84
2021/06/16 08:16:33;;;;;;;6.97;2.37;;;;;;;;;;4358892;32;21099;-80
2021/06/16 08:19:04;;;;;;;23.02;3.25;;;;;;;;;;4375300;32;20126;-86
2021/06/16 08:21:35;;;;;;;6.55;2.58;;;;;;;;;;4358206;32;20373;-87
2021/06/16 08:24:06;;;;;;;8.40;2.37;;;;;;;;;;4395330;32;20967;-91
2021/06/16 08:26:37;;;;;;;7.22;2.47;;;;;;;;;;4373016;32;20157;-84
2021/06/16 08:29:06;;;;;;;10.02;2.40;;;;;;;;;;4391620;32;20126;-83
2021/06/16 08:31:36;;;;;;;4.47;2.53;;;;;;;;;;4386440;32;22248;-80
2021/06/16 08:34:08;;;;;;;6.62;2.40;;;;;;;;;;4382664;32;20542;-83
2021/06/16 08:36:41;;;;;;;4.95;2.55;;;;;;;;;;4387538;32;20098;-86
2021/06/16 08:39:22;;;;;;;5.70;2.70;;;;;;;;;;4399671;32;20091;-85
2021/06/16 08:41:53;;;;;;;5.72;3.85;;;;;;;;;;4399786;32;20102;-85
2021/06/16 08:44:24;;;;;;;11.18;5.30;;;;;;;;;;4379655;32;20429;-87
2021/06/16 08:46:56;;;;;;;8.88;7.07;;;;;;;;;;4387425;32;20093;-85
2021/06/16 08:49:27;;;;;;;15.40;14.13;;;;;;;;;;4392115;32;20057;-85
2021/06/16 08:51:59;;;;;;;25.30;23.50;;;;;;;;;;4376842;32;20547;-85
2021/06/16 08:54:30;;;;;;;31.58;29.08;;;;;;;;;;4377120;32;20086;-85
2021/06/16 08:57:00;;;;;;;22.98;21.52;;;;;;;;;;4378574;32;20537;-83
2021/06/16 08:59:31;;;;;;;7.12;4.68;;;;;;;;;;4379707;32;21711;-86
2021/06/16 09:02:03;;;;;;;6.05;3.22;;;;;;;;;;4372188;32;20149;-86
2021/06/16 09:04:44;;;;;;;5.53;4.78;;;;;;;;;;4364120;32;20137;-86
2021/06/16 09:07:18;;;;;;;8.27;5.05;;;;;;;;;;4381381;32;20124;-82
2021/06/16 09:10:04;;;;;;;9.52;3.67;;;;;;;;;;4397755;32;20236;-85
2021/06/16 09:12:36;;;;;;;7.68;3.15;;;;;;;;;;4383279;32;20097;-85
2021/06/16 09:15:13;;;;;;;5.87;2.80;;;;;;;;;;4399029;32;20546;-83
2021/06/16 09:17:59;;;;;;;7.62;2.37;;;;;;;;;;4386754;32;20102;-85
2021/06/16 09:20:36;;;;;;;7.30;2.62;;;;;;;;;;4363397;32;20124;-88
2021/06/16 09:23:18;;;;;;;5.37;2.80;;;;;;;;;;4389440;32;20117;-86
2021/06/16 09:26:04;;;;;;;6.05;2.40;;;;;;;;;;4380580;32;20153;-86
2021/06/16 09:28:36;;;;;;;8.45;2.62;;;;;;;;;;4371682;32;20167;-85
2021/06/16 09:31:12;;;;;;;5.62;2.20;;;;;;;;;;4389378;32;20131;-86
2021/06/16 09:33:43;;;;;;;5.35;2.42;;;;;;;;;;4393236;32;20077;-86
2021/06/16 09:36:15;;;;;;;5.03;1.98;;;;;;;;;;4392808;32;20131;-82
2021/06/16 09:38:47;;;;;;;6.35;2.75;;;;;;;;;;4374105;32;20237;-89
2021/06/16 09:41:19;;;;;;;8.43;3.05;;;;;;;;;;4387666;32;20120;-83
2021/06/16 09:43:56;;;;;;;9.40;3.08;;;;;;;;;;4389970;32;20172;-80
2021/06/16 09:46:28;;;;;;;5.70;2.60;;;;;;;;;;4388593;32;20211;-86
2021/06/16 09:48:59;;;;;;;6.82;2.90;;;;;;;;;;4366068;32;20141;-84
2021/06/16 09:51:33;;;;;;;5.45;3.20;;;;;;;;;;4395585;32;20138;-84
2021/06/16 09:54:18;;;;;;;6.07;2.83;;;;;;;;;;4393401;32;20132;-83
2021/06/16 09:56:59;;;;;;;7.68;2.85;;;;;;;;;;4390909;32;20156;-82
2021/06/16 09:59:35;;;;;;;7.87;2.70;;;;;;;;;;4389487;32;20161;-86
2021/06/16 10:02:15;;;;;;;6.60;2.90;;;;;;;;;;4395525;32;20512;-89
2021/06/16 10:04:49;;;;;;;5.12;2.70;;;;;;;;;;4389177;32;20114;-83
2021/06/16 10:07:20;;;;;;;;;;;;;;;;;;4393849;32;20493;-84
2021/06/16 10:09:51;;;;;;;14.73;3.30;;;;;;;;;;4383909;32;20009;-86
2021/06/16 10:12:23;;;;;;;6.22;2.65;;;;;;;;;;4385947;32;20077;-85
2021/06/16 10:14:55;;;;;;;9.18;2.70;;;;;;;;;;4391900;32;20265;-88
2021/06/16 10:17:26;;;;;;;6.72;2.95;;;;;;;;;;4380972;32;20106;-83
2021/06/16 10:19:57;;;;;;;8.73;3.00;;;;;;;;;;4367837;32;20130;-82
2021/06/16 10:22:28;;;;;;;9.27;2.90;;;;;;;;;;4385592;32;20125;-84
2021/06/16 10:24:59;;;;;;;7.95;3.28;;;;;;;;;;4382929;32;20152;-83
2021/06/16 10:27:35;;;;;;;8.82;2.70;;;;;;;;;;4370346;32;20058;-90
2021/06/16 10:30:12;;;;;;;7.43;2.17;;;;;;;;;;4375584;32;20125;-86
2021/06/16 10:32:47;;;;;;;4.43;1.98;;;;;;;;;;4372013;32;20453;-83
2021/06/16 10:35:38;;;;;;;7.78;2.37;;;;;;;;;;4376914;32;20404;-92
2021/06/16 10:38:13;;;;;;;7.97;2.50;;;;;;;;;;4381373;32;20147;-85
2021/06/16 10:40:51;;;;;;;6.00;2.20;;;;;;;;;;4389106;32;20132;-83
2021/06/16 10:43:41;;;;;;;6.22;2.10;;;;;;;;;;4393263;32;20136;-83
2021/06/16 10:46:13;;;;;;;5.87;2.10;;;;;;;;;;4387123;32;20097;-84
2021/06/16 10:48:53;;;;;;;6.03;2.08;;;;;;;;;;4377231;32;20357;-83
2021/06/16 10:51:28;;;;;;;4.47;2.00;;;;;;;;;;4384029;32;20145;-81
2021/06/16 10:54:11;;;;;;;8.05;2.20;;;;;;;;;;4387430;32;20125;-83
2021/06/16 10:56:44;;;;;;;5.32;2.17;;;;;;;;;;4397037;32;20080;-82
2021/06/16 10:59:36;;;;;;;5.75;2.17;;;;;;;;;;4393477;32;20068;-84
2021/06/16 11:02:07;;;;;;;6.62;2.40;;;;;;;;;;4383960;32;20076;-82
2021/06/16 11:04:38;;;;;;;5.18;2.33;;;;;;;;;;4396866;32;20066;-82
2021/06/16 11:07:28;;;;;;;5.12;2.08;;;;;;;;;;4390605;32;20089;-84
2021/06/16 11:10:00;;;;;;;4.62;2.00;;;;;;;;;;4398644;32;20078;-85
2021/06/16 11:12:39;;;;;;;4.07;2.08;;;;;;;;;;4398315;32;20148;-86
2021/06/16 11:15:24;;;;;;;6.05;2.37;;;;;;;;;;4396762;32;20097;-87
2021/06/16 11:17:57;;;;;;;4.80;2.22;;;;;;;;;;4393368;32;20138;-85
2021/06/16 11:20:29;;;;;;;5.18;2.08;;;;;;;;;;4396945;32;20069;-85
2021/06/16 11:23:00;;;;;;;5.22;2.05;;;;;;;;;;4397280;32;21075;-84
2021/06/16 11:25:34;;;;;;;5.20;1.87;;;;;;;;;;4400071;32;20430;-83
2021/06/16 11:28:08;;;;;;;15.82;2.70;;;;;;;;;;4382451;32;20059;-89
2021/06/16 11:30:38;;;;;;;;;;;;;;;;;;4398573;32;20474;-87
2021/06/16 11:33:21;;;;;;;9.88;2.60;;;;;;;;;;4395805;32;19988;-82
2021/06/16 11:35:52;;;;;;;4.82;2.37;;;;;;;;;;4399464;32;21078;-82
2021/06/16 11:38:32;;;;;;;4.93;1.95;;;;;;;;;;4386339;32;20051;-83
2021/06/16 11:41:18;;;;;;;9.80;2.70;;;;;;;;;;4388905;32;20059;-88
2021/06/16 11:43:50;;;;;;;4.85;2.20;;;;;;;;;;4394546;32;20840;-85
2021/06/16 11:46:27;;;;;;;4.93;2.00;;;;;;;;;;4393821;32;20077;-81
2021/06/16 11:49:05;;;;;;;6.00;2.28;;;;;;;;;;4397938;32;20084;-82
2021/06/16 11:51:36;;;;;;;6.93;2.20;;;;;;;;;;4398288;32;20130;-84
2021/06/16 11:54:24;;;;;;;4.28;1.83;;;;;;;;;;4381762;32;20810;-88
2021/06/16 11:57:09;;;;;;;7.35;2.10;;;;;;;;;;4389662;32;20055;-82
2021/06/16 11:59:42;;;;;;;5.82;2.10;;;;;;;;;;4389343;32;20130;-86
2021/06/16 12:02:20;;;;;;;4.30;1.80;;;;;;;;;;4390230;32;20069;-81
2021/06/16 12:05:12;;;;;;;6.75;1.90;;;;;;;;;;4389812;32;20121;-86
2021/06/16 12:07:44;;;;;;;5.40;2.12;;;;;;;;;;4390289;32;20051;-85
2021/06/16 12:10:16;;;;;;;8.02;2.22;;;;;;;;;;4382457;32;20062;-86
2021/06/16 12:13:05;;;;;;;8.00;2.22;;;;;;;;;;4396816;32;20141;-81
2021/06/16 12:15:37;;;;;;;8.55;2.40;;;;;;;;;;4388732;32;20104;-87
2021/06/16 12:18:10;;;;;;;4.50;2.00;;;;;;;;;;4396268;32;20117;-85
2021/06/16 12:20:46;;;;;;;5.12;1.90;;;;;;;;;;4385336;32;20109;-81
2021/06/16 12:23:25;;;;;;;4.87;1.90;;;;;;;;;;4387908;32;20113;-86
2021/06/16 12:26:03;;;;;;;5.53;2.15;;;;;;;;;;4386699;32;20089;-84
2021/06/16 12:28:40;;;;;;;7.03;2.35;;;;;;;;;;4394801;32;20103;-83
2021/06/16 12:31:15;;;;;;;5.47;2.15;;;;;;;;;;4400199;32;20083;-84
2021/06/16 12:36:30;;;;;;;;;;;;;;;;;;4388658;32;20827;-81
2021/06/16 12:39:06;;;;;;;7.30;2.22;;;;;;;;;;4391891;32;20411;-83
2021/06/16 12:41:38;;;;;;;7.10;2.58;;;;;;;;;;4396050;32;20124;-82
2021/06/16 12:44:14;;;;;;;5.85;2.33;;;;;;;;;;4396329;32;20065;-82
2021/06/16 12:47:06;;;;;;;7.95;2.42;;;;;;;;;;4400724;32;20116;-84
2021/06/16 12:49:39;;;;;;;5.43;2.50;;;;;;;;;;4389114;32;20449;-84
2021/06/16 12:52:12;;;;;;;8.88;2.55;;;;;;;;;;4397824;32;20063;-81
2021/06/16 12:54:46;;;;;;;4.95;2.10;;;;;;;;;;4396028;32;20094;-83
2021/06/16 12:57:19;;;;;;;7.28;2.65;;;;;;;;;;4393558;32;20055;-80
2021/06/16 12:59:51;;;;;;;6.95;2.35;;;;;;;;;;4390165;32;20724;-86
2021/06/16 13:02:26;;;;;;;4.90;2.33;;;;;;;;;;4391990;32;20116;-78
2021/06/16 13:05:01;;;;;;;6.53;2.65;;;;;;;;;;4394853;32;20162;-80
2021/06/16 13:07:50;;;;;;;10.80;3.12;;;;;;;;;;4393468;32;20085;-83
2021/06/16 13:10:24;;;;;;;7.15;2.53;;;;;;;;;;4389594;32;20512;-87
2021/06/16 13:13:08;;;;;;;7.00;2.35;;;;;;;;;;4394557;32;20453;-84
2021/06/16 13:15:39;;;;;;;16.42;3.20;;;;;;;;;;4398154;32;20150;-83
2021/06/16 13:18:23;;;;;;;5.82;2.50;;;;;;;;;;4399220;32;20113;-86
2021/06/16 13:20:54;;;;;;;;;;;;;;;;;;4403579;32;20534;-84
2021/06/16 13:23:26;;;;;;;5.90;2.47;;;;;;;;;;4399684;32;19964;-83
2021/06/16 13:26:01;;;;;;;4.15;2.50;;;;;;;;;;4401969;32;20078;-83
2021/06/16 13:28:34;;;;;;;3.95;2.33;;;;;;;;;;4395853;32;20093;-81
2021/06/16 13:31:06;;;;;;;8.65;2.70;;;;;;;;;;4387708;32;20082;-83
2021/06/16 13:33:38;;;;;;;7.87;2.30;;;;;;;;;;4397661;32;20058;-90
2021/06/16 13:36:10;;;;;;;9.07;2.37;;;;;;;;;;4393131;32;20059;-82
2021/06/16 13:38:44;;;;;;;5.37;2.40;;;;;;;;;;4396257;32;20047;-88
2021/06/16 13:41:17;;;;;;;5.43;2.50;;;;;;;;;;4387991;32;20164;-83
2021/06/16 13:43:48;;;;;;;4.43;2.22;;;;;;;;;;4390892;32;20059;-82
2021/06/16 13:46:19;;;;;;;6.75;2.80;;;;;;;;;;4385213;32;20084;-85
2021/06/16 13:48:51;;;;;;;5.93;2.62;;;;;;;;;;4396832;32;20073;-82
2021/06/16 13:51:22;;;;;;;7.07;2.53;;;;;;;;;;4385785;32;20077;-82
2021/06/16 13:53:54;;;;;;;4.50;2.30;;;;;;;;;;4393535;32;20107;-83
2021/06/16 13:56:25;;;;;;;7.25;2.72;;;;;;;;;;4398843;32;20085;-84
2021/06/16 13:58:56;;;;;;;7.45;2.37;;;;;;;;;;4395764;32;20055;-82
2021/06/16 14:01:26;;;;;;;7.87;2.90;;;;;;;;;;4386147;32;20440;-82
2021/06/16 14:03:58;;;;;;;11.52;2.85;;;;;;;;;;4393379;32;20043;-78
2021/06/16 14:06:29;;;;;;;5.28;2.60;;;;;;;;;;4399584;32;20425;-84
2021/06/16 14:09:03;;;;;;;8.55;3.00;;;;;;;;;;4386546;32;20090;-82
2021/06/16 14:11:33;;;;;;;6.93;2.80;;;;;;;;;;4386126;32;20453;-81
2021/06/16 14:14:06;;;;;;;6.00;2.50;;;;;;;;;;4395215;32;20047;-82
2021/06/16 14:16:36;;;;;;;11.00;2.72;;;;;;;;;;4398762;32;20472;-83
2021/06/16 14:19:08;;;;;;;6.97;2.60;;;;;;;;;;4393497;32;20107;-90
2021/06/16 14:21:41;;;;;;;8.30;3.05;;;;;;;;;;4386222;32;20408;-79
2021/06/16 14:24:12;;;;;;;6.03;2.62;;;;;;;;;;4389534;32;20083;-85
2021/06/16 14:26:44;;;;;;;12.52;2.80;;;;;;;;;;4400217;32;20059;-83
2021/06/16 14:29:15;;;;;;;16.52;3.75;;;;;;;;;;4393279;32;20464;-86
2021/06/16 14:31:46;;;;;;;6.47;2.90;;;;;;;;;;4372069;32;20084;-82
2021/06/16 14:34:18;;;;;;;11.48;2.80;;;;;;;;;;4383333;32;20174;-80
2021/06/16 14:36:49;;;;;;;6.93;2.90;;;;;;;;;;4400265;32;20069;-87
2021/06/16 14:39:20;;;;;;;6.82;2.60;;;;;;;;;;4391190;32;20823;-92
2021/06/16 14:41:50;;;;;;;7.43;2.90;;;;;;;;;;4384666;32;20096;-80
2021/06/16 14:44:21;;;;;;;6.87;2.67;;;;;;;;;;4394669;32;20086;-83
2021/06/16 14:46:50;;;;;;;8.25;2.72;;;;;;;;;;4391743;32;20104;-80
2021/06/16 14:49:21;;;;;;;8.32;3.10;;;;;;;;;;4386649;32;20090;-84
2021/06/16 14:51:53;;;;;;;7.50;3.17;;;;;;;;;;4391922;32;20104;-80
2021/06/16 14:54:26;;;;;;;8.32;3.03;;;;;;;;;;4398421;32;20119;-84
2021/06/16 14:56:56;;;;;;;3.83;2.70;;;;;;;;;;4400628;32;20518;-82
2021/06/16 14:59:28;;;;;;;7.40;2.90;;;;;;;;;;4395058;32;20069;-86
2021/06/16 15:01:59;;;;;;;9.02;3.05;;;;;;;;;;4384157;32;20054;-82
2021/06/16 15:04:38;;;;;;;6.82;2.80;;;;;;;;;;4396422;32;20062;-85
2021/06/16 15:07:10;;;;;;;7.50;2.80;;;;;;;;;;4398642;32;20054;-86
2021/06/16 15:09:41;;;;;;;10.65;3.30;;;;;;;;;;4389966;32;20495;-82
2021/06/16 15:12:12;;;;;;;8.40;2.80;;;;;;;;;;4383376;32;20521;-87